sensor_id;sensor_type;location;lat;lon;timestamp;pressure;altitude;pressure_sealevel;temperature;humidity
20987;BME280;10652;50.306;8.570;2022-10-16T00:01:45;97687.25;;;14.78;100.00
20987;BME280;10652;50.306;8.570;2022-10-16T00:05:47;97675.97;;;14.76;100.00
20987;BME280;10652;50.306;8.570;2022-10-16T00:09:49;97684.97;;;14.72;100.00
20987;BME280;10652;50.306;8.570;2022-10-16T00:13:55;97682.53;;;14.69;100.00
20987;BME280;10652;50.306;8.570;2022-10-16T00:17:58;97673.78;;;14.68;100.00
20987;BME280;10652;50.306;8.570;2022-10-16T00:22:00;97683.47;;;14.68;100.00
20987;BME280;10652;50.306;8.570;2022-10-16T00:26:07;97679.91;;;14.69;100.00
20987;BME280;10652;50.306;8.570;2022-10-16T00:30:10;97686.22;;;14.66;100.00
20987;BME280;10652;50.306;8.570;2022-10-16T00:34:12;97691.28;;;14.69;100.00
20987;BME280;10652;50.306;8.570;2022-10-16T00:38:14;97681.59;;;14.70;100.00
20987;BME280;10652;50.306;8.570;2022-10-16T00:42:17;97671.91;;;14.71;100.00
20987;BME280;10652;50.306;8.570;2022-10-16T00:46:21;97680.66;;;14.71;100.00
20987;BME280;10652;50.306;8.570;2022-10-16T00:50:31;97693.28;;;14.80;100.00
20987;BME280;10652;50.306;8.570;2022-10-16T00:54:34;97685.38;;;14.80;100.00
20987;BME280;10652;50.306;8.570;2022-10-16T00:58:36;97705.69;;;14.78;100.00
20987;BME280;10652;50.306;8.570;2022-10-16T01:02:38;97694.22;;;14.79;100.00
20987;BME280;10652;50.306;8.570;2022-10-16T01:06:52;97704.75;;;14.79;100.00
20987;BME280;10652;50.306;8.570;2022-10-16T01:11:06;97713.53;;;14.80;100.00
20987;BME280;10652;50.306;8.570;2022-10-16T01:15:22;97715.03;;;14.84;100.00
20987;BME280;10652;50.306;8.570;2022-10-16T01:20:00;97717.38;;;14.88;100.00
20987;BME280;10652;50.306;8.570;2022-10-16T01:28:35;97722.94;;;14.98;100.00
20987;BME280;10652;50.306;8.570;2022-10-16T01:36:51;97701.34;;;15.05;100.00
20987;BME280;10652;50.306;8.570;2022-10-16T01:41:00;97701.25;;;15.07;100.00
20987;BME280;10652;50.306;8.570;2022-10-16T01:45:05;97723.88;;;15.11;100.00
20987;BME280;10652;50.306;8.570;2022-10-16T01:49:10;97713.97;;;15.14;100.00
20987;BME280;10652;50.306;8.570;2022-10-16T01:53:15;97710.94;;;15.21;100.00
20987;BME280;10652;50.306;8.570;2022-10-16T01:57:19;97702.19;;;15.20;100.00
20987;BME280;10652;50.306;8.570;2022-10-16T02:01:26;97703.78;;;15.23;100.00
20987;BME280;10652;50.306;8.570;2022-10-16T02:05:37;97713.38;;;15.24;100.00
20987;BME280;10652;50.306;8.570;2022-10-16T02:09:42;97723.00;;;15.25;100.00
20987;BME280;10652;50.306;8.570;2022-10-16T02:13:48;97729.00;;;15.27;100.00
20987;BME280;10652;50.306;8.570;2022-10-16T02:17:51;97728.06;;;15.28;100.00
20987;BME280;10652;50.306;8.570;2022-10-16T02:21:58;97725.34;;;15.29;100.00
20987;BME280;10652;50.306;8.570;2022-10-16T02:26:04;97728.84;;;15.30;100.00
20987;BME280;10652;50.306;8.570;2022-10-16T02:30:11;97727.13;;;15.29;100.00
20987;BME280;10652;50.306;8.570;2022-10-16T02:34:16;97718.47;;;15.27;100.00
20987;BME280;10652;50.306;8.570;2022-10-16T02:38:20;97726.28;;;15.28;100.00
20987;BME280;10652;50.306;8.570;2022-10-16T02:42:34;97720.16;;;15.28;100.00
20987;BME280;10652;50.306;8.570;2022-10-16T02:46:37;97719.22;;;15.29;100.00
20987;BME280;10652;50.306;8.570;2022-10-16T02:50:39;97726.38;;;15.27;100.00
20987;BME280;10652;50.306;8.570;2022-10-16T02:54:41;97744.66;;;15.30;100.00
20987;BME280;10652;50.306;8.570;2022-10-16T02:58:43;97744.66;;;15.30;100.00
20987;BME280;10652;50.306;8.570;2022-10-16T03:02:46;97747.88;;;15.35;100.00
20987;BME280;10652;50.306;8.570;2022-10-16T03:06:48;97752.28;;;15.34;100.00
20987;BME280;10652;50.306;8.570;2022-10-16T03:10:51;97767.19;;;15.35;100.00
20987;BME280;10652;50.306;8.570;2022-10-16T03:14:55;97782.16;;;15.35;100.00
20987;BME280;10652;50.306;8.570;2022-10-16T03:18:58;97777.63;;;15.37;100.00
20987;BME280;10652;50.306;8.570;2022-10-16T03:23:00;97771.50;;;15.36;100.00
20987;BME280;10652;50.306;8.570;2022-10-16T03:27:02;97772.34;;;15.37;100.00
20987;BME280;10652;50.306;8.570;2022-10-16T03:31:04;97772.63;;;15.32;100.00
20987;BME280;10652;50.306;8.570;2022-10-16T03:35:07;97759.94;;;15.25;100.00
20987;BME280;10652;50.306;8.570;2022-10-16T03:39:09;97761.06;;;15.21;100.00
20987;BME280;10652;50.306;8.570;2022-10-16T03:43:11;97772.84;;;15.15;100.00
20987;BME280;10652;50.306;8.570;2022-10-16T03:47:13;97769.44;;;15.13;100.00
20987;BME280;10652;50.306;8.570;2022-10-16T03:51:15;97758.22;;;15.09;100.00
20987;BME280;10652;50.306;8.570;2022-10-16T03:55:17;97765.41;;;15.07;100.00
20987;BME280;10652;50.306;8.570;2022-10-16T03:59:19;97765.28;;;15.09;100.00
20987;BME280;10652;50.306;8.570;2022-10-16T04:03:21;97773.22;;;15.09;100.00
20987;BME280;10652;50.306;8.570;2022-10-16T04:07:24;97765.41;;;15.07;100.00
20987;BME280;10652;50.306;8.570;2022-10-16T04:11:27;97767.47;;;15.02;100.00
20987;BME280;10652;50.306;8.570;2022-10-16T04:15:29;97776.31;;;15.01;100.00
20987;BME280;10652;50.306;8.570;2022-10-16T04:19:31;97774.63;;;15.00;100.00
20987;BME280;10652;50.306;8.570;2022-10-16T04:23:33;97773.78;;;15.00;100.00
20987;BME280;10652;50.306;8.570;2022-10-16T04:27:35;97790.06;;;15.06;100.00
20987;BME280;10652;50.306;8.570;2022-10-16T04:31:37;97801.28;;;15.10;100.00
20987;BME280;10652;50.306;8.570;2022-10-16T04:35:39;97801.00;;;15.14;100.00
20987;BME280;10652;50.306;8.570;2022-10-16T04:39:41;97799.88;;;15.19;100.00
20987;BME280;10652;50.306;8.570;2022-10-16T04:43:43;97810.25;;;15.22;100.00
20987;BME280;10652;50.306;8.570;2022-10-16T04:47:45;97806.56;;;15.24;100.00
20987;BME280;10652;50.306;8.570;2022-10-16T04:51:47;97800.34;;;15.25;100.00
20987;BME280;10652;50.306;8.570;2022-10-16T04:55:50;97789.81;;;15.25;100.00
20987;BME280;10652;50.306;8.570;2022-10-16T04:59:52;97793.19;;;15.27;100.00
20987;BME280;10652;50.306;8.570;2022-10-16T05:03:54;97805.44;;;15.28;100.00
20987;BME280;10652;50.306;8.570;2022-10-16T05:07:56;97811.34;;;15.32;100.00
20987;BME280;10652;50.306;8.570;2022-10-16T05:11:58;97809.69;;;15.31;100.00
20987;BME280;10652;50.306;8.570;2022-10-16T05:16:00;97801.00;;;15.29;100.00
20987;BME280;10652;50.306;8.570;2022-10-16T05:20:02;97813.25;;;15.30;100.00
20987;BME280;10652;50.306;8.570;2022-10-16T05:24:05;97809.69;;;15.31;100.00
20987;BME280;10652;50.306;8.570;2022-10-16T05:28:07;97803.56;;;15.30;100.00
20987;BME280;10652;50.306;8.570;2022-10-16T05:32:09;97797.44;;;15.30;100.00
20987;BME280;10652;50.306;8.570;2022-10-16T05:36:11;97807.97;;;15.30;100.00
20987;BME280;10652;50.306;8.570;2022-10-16T05:40:14;97809.69;;;15.31;100.00
20987;BME280;10652;50.306;8.570;2022-10-16T05:44:16;97802.50;;;15.33;100.00
20987;BME280;10652;50.306;8.570;2022-10-16T05:48:18;97802.31;;;15.36;100.00
20987;BME280;10652;50.306;8.570;2022-10-16T05:52:20;97805.72;;;15.38;100.00
20987;BME280;10652;50.306;8.570;2022-10-16T05:56:22;97815.31;;;15.39;100.00
20987;BME280;10652;50.306;8.570;2022-10-16T06:00:24;97810.06;;;15.39;100.00
20987;BME280;10652;50.306;8.570;2022-10-16T06:04:26;97833.81;;;15.39;100.00
20987;BME280;10652;50.306;8.570;2022-10-16T06:08:28;97835.59;;;15.38;100.00
20987;BME280;10652;50.306;8.570;2022-10-16T06:12:30;97852.84;;;15.44;100.00
20987;BME280;10652;50.306;8.570;2022-10-16T06:16:36;97848.28;;;15.46;100.00
20987;BME280;10652;50.306;8.570;2022-10-16T06:20:38;97841.16;;;15.48;100.00
20987;BME280;10652;50.306;8.570;2022-10-16T06:24:40;97842.00;;;15.48;100.00
20987;BME280;10652;50.306;8.570;2022-10-16T06:28:42;97850.59;;;15.52;100.00
20987;BME280;10652;50.306;8.570;2022-10-16T06:32:44;97855.88;;;15.52;100.00
20987;BME280;10652;50.306;8.570;2022-10-16T06:36:46;97867.09;;;15.55;100.00
20987;BME280;10652;50.306;8.570;2022-10-16T06:40:48;97873.22;;;15.56;100.00
20987;BME280;10652;50.306;8.570;2022-10-16T06:44:50;97867.75;;;15.59;100.00
20987;BME280;10652;50.306;8.570;2022-10-16T06:48:53;97868.38;;;15.63;100.00
20987;BME280;10652;50.306;8.570;2022-10-16T06:52:55;97866.44;;;15.66;100.00
20987;BME280;10652;50.306;8.570;2022-10-16T06:56:57;97871.50;;;15.69;100.00
20987;BME280;10652;50.306;8.570;2022-10-16T07:01:01;97881.13;;;15.70;100.00
20987;BME280;10652;50.306;8.570;2022-10-16T07:05:04;97888.13;;;15.71;100.00
20987;BME280;10652;50.306;8.570;2022-10-16T07:09:09;97891.50;;;15.73;100.00
20987;BME280;10652;50.306;8.570;2022-10-16T07:13:11;97899.13;;;15.78;100.00
20987;BME280;10652;50.306;8.570;2022-10-16T07:17:16;97914.69;;;15.82;100.00
20987;BME280;10652;50.306;8.570;2022-10-16T07:21:19;97921.47;;;15.86;100.00
20987;BME280;10652;50.306;8.570;2022-10-16T07:25:22;97916.81;;;16.04;100.00
20987;BME280;10652;50.306;8.570;2022-10-16T07:29:24;97924.84;;;16.02;100.00
20987;BME280;10652;50.306;8.570;2022-10-16T07:33:26;97950.50;;;16.00;100.00
20987;BME280;10652;50.306;8.570;2022-10-16T07:37:28;97950.50;;;16.00;100.00
20987;BME280;10652;50.306;8.570;2022-10-16T07:41:30;97948.81;;;15.99;100.00
20987;BME280;10652;50.306;8.570;2022-10-16T07:45:34;97961.00;;;16.02;100.00
20987;BME280;10652;50.306;8.570;2022-10-16T07:49:36;97970.50;;;16.05;100.00
20987;BME280;10652;50.306;8.570;2022-10-16T07:53:38;97980.22;;;16.04;100.00
20987;BME280;10652;50.306;8.570;2022-10-16T07:57:40;97982.78;;;16.06;100.00
20987;BME280;10652;50.306;8.570;2022-10-16T08:01:42;97989.09;;;16.03;100.00
20987;BME280;10652;50.306;8.570;2022-10-16T08:05:44;97991.63;;;16.05;100.00
20987;BME280;10652;50.306;8.570;2022-10-16T08:09:49;98009.19;;;16.06;100.00
20987;BME280;10652;50.306;8.570;2022-10-16T08:13:52;98003.53;;;16.12;100.00
20987;BME280;10652;50.306;8.570;2022-10-16T08:17:59;98008.25;;;16.21;100.00
20987;BME280;10652;50.306;8.570;2022-10-16T08:22:01;98013.91;;;16.29;100.00
20987;BME280;10652;50.306;8.570;2022-10-16T08:26:06;98018.22;;;16.44;100.00
20987;BME280;10652;50.306;8.570;2022-10-16T08:30:09;98026.31;;;16.55;100.00
20987;BME280;10652;50.306;8.570;2022-10-16T08:34:11;98026.69;;;16.63;100.00
20987;BME280;10652;50.306;8.570;2022-10-16T08:38:13;98032.47;;;16.70;100.00
20987;BME280;10652;50.306;8.570;2022-10-16T08:42:22;98034.59;;;16.77;100.00
20987;BME280;10652;50.306;8.570;2022-10-16T08:50:38;98061.97;;;16.90;100.00
20987;BME280;10652;50.306;8.570;2022-10-16T08:54:44;98067.25;;;16.90;100.00
20987;BME280;10652;50.306;8.570;2022-10-16T08:58:48;98066.09;;;16.95;100.00
20987;BME280;10652;50.306;8.570;2022-10-16T09:03:07;98065.28;;;16.94;100.00
20987;BME280;10652;50.306;8.570;2022-10-16T09:11:43;98054.28;;;17.27;100.00
20987;BME280;10652;50.306;8.570;2022-10-16T09:15:56;98067.47;;;17.54;100.00
20987;BME280;10652;50.306;8.570;2022-10-16T09:24:25;98077.31;;;17.78;100.00
20987;BME280;10652;50.306;8.570;2022-10-16T09:28:30;98087.63;;;17.96;100.00
20987;BME280;10652;50.306;8.570;2022-10-16T09:32:32;98092.59;;;18.13;100.00
20987;BME280;10652;50.306;8.570;2022-10-16T09:36:40;98106.72;;;18.26;100.00
20987;BME280;10652;50.306;8.570;2022-10-16T09:40:43;98099.41;;;18.30;100.00
20987;BME280;10652;50.306;8.570;2022-10-16T09:44:50;98108.09;;;18.32;100.00
20987;BME280;10652;50.306;8.570;2022-10-16T09:48:58;98109.38;;;18.26;100.00
20987;BME280;10652;50.306;8.570;2022-10-16T09:53:11;98118.63;;;18.20;100.00
20987;BME280;10652;50.306;8.570;2022-10-16T09:57:13;98120.28;;;18.09;100.00
20987;BME280;10652;50.306;8.570;2022-10-16T10:01:15;98125.25;;;18.01;100.00
20987;BME280;10652;50.306;8.570;2022-10-16T10:05:20;98115.50;;;18.01;100.00
20987;BME280;10652;50.306;8.570;2022-10-16T10:09:26;98133.97;;;18.03;100.00
20987;BME280;10652;50.306;8.570;2022-10-16T10:13:29;98131.53;;;18.12;100.00
20987;BME280;10652;50.306;8.570;2022-10-16T10:17:31;98127.09;;;18.38;100.00
20987;BME280;10652;50.306;8.570;2022-10-16T10:21:33;98109.00;;;18.57;100.00
20987;BME280;10652;50.306;8.570;2022-10-16T10:25:49;98118.38;;;18.87;100.00
20987;BME280;10652;50.306;8.570;2022-10-16T10:38:47;98111.16;;;19.25;100.00
20987;BME280;10652;50.306;8.570;2022-10-16T10:42:59;98114.06;;;19.46;99.59
20987;BME280;10652;50.306;8.570;2022-10-16T10:51:33;98106.63;;;19.38;96.23
20987;BME280;10652;50.306;8.570;2022-10-16T11:00:23;98106.59;;;19.75;96.67
20987;BME280;10652;50.306;8.570;2022-10-16T11:09:15;98098.09;;;20.05;97.37
20987;BME280;10652;50.306;8.570;2022-10-16T11:17:29;98096.03;;;19.97;97.70
20987;BME280;10652;50.306;8.570;2022-10-16T11:21:39;98096.47;;;19.91;99.02
20987;BME280;10652;50.306;8.570;2022-10-16T11:25:46;98110.16;;;19.97;99.66
20987;BME280;10652;50.306;8.570;2022-10-16T11:30:02;98101.59;;;20.05;98.85
20987;BME280;10652;50.306;8.570;2022-10-16T11:43:27;98092.03;;;20.37;96.54
20987;BME280;10652;50.306;8.570;2022-10-16T11:47:35;98096.38;;;20.38;96.49
20987;BME280;10652;50.306;8.570;2022-10-16T11:52:12;98090.72;;;20.08;96.79
20987;BME280;10652;50.306;8.570;2022-10-16T11:56:19;98096.97;;;19.96;97.93
20987;BME280;10652;50.306;8.570;2022-10-16T12:00:33;98092.81;;;20.16;99.57
20987;BME280;10652;50.306;8.570;2022-10-16T12:04:46;98100.19;;;20.23;99.37
20987;BME280;10652;50.306;8.570;2022-10-16T12:08:51;98109.50;;;20.29;98.97
20987;BME280;10652;50.306;8.570;2022-10-16T12:12:54;98099.66;;;20.42;98.82
20987;BME280;10652;50.306;8.570;2022-10-16T12:17:00;98114.75;;;20.41;98.01
20987;BME280;10652;50.306;8.570;2022-10-16T12:21:02;98116.34;;;20.44;98.49
20987;BME280;10652;50.306;8.570;2022-10-16T12:25:41;98119.34;;;20.51;98.39
20987;BME280;10652;50.306;8.570;2022-10-16T12:29:54;98115.00;;;20.38;97.51
20987;BME280;10652;50.306;8.570;2022-10-16T12:34:01;98110.56;;;20.26;96.68
20987;BME280;10652;50.306;8.570;2022-10-16T12:38:36;98098.53;;;20.33;97.35
20987;BME280;10652;50.306;8.570;2022-10-16T12:42:39;98106.06;;;20.39;97.73
20987;BME280;10652;50.306;8.570;2022-10-16T12:46:42;98110.78;;;20.47;97.42
20987;BME280;10652;50.306;8.570;2022-10-16T12:50:44;98127.34;;;20.51;96.33
20987;BME280;10652;50.306;8.570;2022-10-16T12:54:46;98126.72;;;20.36;94.54
20987;BME280;10652;50.306;8.570;2022-10-16T12:59:04;98129.69;;;20.20;96.26
20987;BME280;10652;50.306;8.570;2022-10-16T13:03:34;98136.81;;;20.20;97.36
20987;BME280;10652;50.306;8.570;2022-10-16T13:16:33;98148.63;;;20.51;96.73
20987;BME280;10652;50.306;8.570;2022-10-16T13:20:59;98147.63;;;20.40;96.23
20987;BME280;10652;50.306;8.570;2022-10-16T13:26:17;98154.66;;;20.30;96.16
20987;BME280;10652;50.306;8.570;2022-10-16T13:30:02;98145.81;;;20.30;96.10
20987;BME280;10652;50.306;8.570;2022-10-16T13:34:15;98144.19;;;20.27;95.84
20987;BME280;10652;50.306;8.570;2022-10-16T13:38:33;98136.69;;;20.21;94.80
20987;BME280;10652;50.306;8.570;2022-10-16T13:42:35;98141.53;;;20.16;94.03
20987;BME280;10652;50.306;8.570;2022-10-16T13:46:37;98132.31;;;20.09;93.40
20987;BME280;10652;50.306;8.570;2022-10-16T13:50:39;98134.97;;;20.09;92.68
20987;BME280;10652;50.306;8.570;2022-10-16T13:54:41;98144.03;;;20.07;91.75
20987;BME280;10652;50.306;8.570;2022-10-16T13:58:44;98136.41;;;20.13;90.95
20987;BME280;10652;50.306;8.570;2022-10-16T14:02:51;98147.50;;;20.31;91.00
20987;BME280;10652;50.306;8.570;2022-10-16T14:06:54;98149.69;;;20.37;90.25
20987;BME280;10652;50.306;8.570;2022-10-16T14:10:59;98147.38;;;20.32;90.30
20987;BME280;10652;50.306;8.570;2022-10-16T14:15:02;98139.56;;;20.18;90.38
20987;BME280;10652;50.306;8.570;2022-10-16T14:19:05;98143.91;;;20.08;89.91
20987;BME280;10652;50.306;8.570;2022-10-16T14:23:28;98152.47;;;20.01;90.49
20987;BME280;10652;50.306;8.570;2022-10-16T14:27:34;98148.00;;;20.01;91.58
20987;BME280;10652;50.306;8.570;2022-10-16T14:31:36;98140.28;;;20.09;91.98
20987;BME280;10652;50.306;8.570;2022-10-16T14:35:39;98138.81;;;20.05;91.87
20987;BME280;10652;50.306;8.570;2022-10-16T14:39:41;98146.69;;;20.07;92.02
20987;BME280;10652;50.306;8.570;2022-10-16T14:43:44;98143.34;;;20.16;91.85
20987;BME280;10652;50.306;8.570;2022-10-16T14:48:02;98151.91;;;20.19;91.57
20987;BME280;10652;50.306;8.570;2022-10-16T14:52:09;98145.38;;;20.12;91.79
20987;BME280;10652;50.306;8.570;2022-10-16T14:56:23;98145.00;;;20.06;92.62
20987;BME280;10652;50.306;8.570;2022-10-16T15:00:26;98148.75;;;20.03;93.23
20987;BME280;10652;50.306;8.570;2022-10-16T15:04:28;98140.75;;;20.03;93.47
20987;BME280;10652;50.306;8.570;2022-10-16T15:08:30;98140.53;;;20.06;93.98
20987;BME280;10652;50.306;8.570;2022-10-16T15:12:32;98147.31;;;20.10;94.36
20987;BME280;10652;50.306;8.570;2022-10-16T15:16:34;98154.53;;;20.08;94.27
20987;BME280;10652;50.306;8.570;2022-10-16T15:20:38;98163.34;;;19.97;94.63
20987;BME280;10652;50.306;8.570;2022-10-16T15:24:40;98156.47;;;19.71;95.52
20987;BME280;10652;50.306;8.570;2022-10-16T15:28:42;98164.44;;;19.47;97.70
20987;BME280;10652;50.306;8.570;2022-10-16T15:32:44;98167.44;;;19.30;99.98
20987;BME280;10652;50.306;8.570;2022-10-16T15:36:46;98175.75;;;19.13;100.00
20987;BME280;10652;50.306;8.570;2022-10-16T15:40:49;98178.31;;;19.02;100.00
20987;BME280;10652;50.306;8.570;2022-10-16T15:44:51;98192.78;;;18.98;100.00
20987;BME280;10652;50.306;8.570;2022-10-16T15:48:57;98189.13;;;18.99;100.00
20987;BME280;10652;50.306;8.570;2022-10-16T15:52:59;98189.13;;;18.99;100.00
20987;BME280;10652;50.306;8.570;2022-10-16T15:57:01;98194.91;;;18.93;100.00
20987;BME280;10652;50.306;8.570;2022-10-16T16:01:04;98193.44;;;18.89;100.00
20987;BME280;10652;50.306;8.570;2022-10-16T16:05:07;98187.59;;;18.84;100.00
20987;BME280;10652;50.306;8.570;2022-10-16T16:09:11;98187.16;;;18.77;100.00
20987;BME280;10652;50.306;8.570;2022-10-16T16:13:13;98183.25;;;18.70;100.00
20987;BME280;10652;50.306;8.570;2022-10-16T16:17:15;98184.41;;;18.66;100.00
20987;BME280;10652;50.306;8.570;2022-10-16T16:21:17;98198.00;;;18.61;100.00
20987;BME280;10652;50.306;8.570;2022-10-16T16:25:19;98196.50;;;18.57;100.00
20987;BME280;10652;50.306;8.570;2022-10-16T16:29:22;98183.44;;;18.54;100.00
20987;BME280;10652;50.306;8.570;2022-10-16T16:33:24;98183.84;;;18.48;100.00
20987;BME280;10652;50.306;8.570;2022-10-16T16:37:26;98180.84;;;18.40;100.00
20987;BME280;10652;50.306;8.570;2022-10-16T16:41:29;98184.03;;;18.33;100.00
20987;BME280;10652;50.306;8.570;2022-10-16T16:45:35;98176.41;;;18.28;100.00
20987;BME280;10652;50.306;8.570;2022-10-16T16:49:37;98181.91;;;18.25;100.00
20987;BME280;10652;50.306;8.570;2022-10-16T16:53:39;98191.03;;;18.21;100.00
20987;BME280;10652;50.306;8.570;2022-10-16T16:57:41;98186.56;;;18.21;100.00
20987;BME280;10652;50.306;8.570;2022-10-16T17:01:43;98190.28;;;18.19;100.00
20987;BME280;10652;50.306;8.570;2022-10-16T17:05:59;98207.34;;;18.15;100.00
20987;BME280;10652;50.306;8.570;2022-10-16T17:10:02;98207.75;;;18.09;100.00
20987;BME280;10652;50.306;8.570;2022-10-16T17:14:04;98211.13;;;17.98;100.00
20987;BME280;10652;50.306;8.570;2022-10-16T17:18:06;98214.47;;;17.88;100.00
20987;BME280;10652;50.306;8.570;2022-10-16T17:22:08;98223.97;;;17.77;100.00
20987;BME280;10652;50.306;8.570;2022-10-16T17:26:15;98222.69;;;17.70;100.00
20987;BME280;10652;50.306;8.570;2022-10-16T17:30:18;98230.81;;;17.67;100.00
20987;BME280;10652;50.306;8.570;2022-10-16T17:34:20;98231.00;;;17.64;100.00
20987;BME280;10652;50.306;8.570;2022-10-16T17:38:22;98233.44;;;17.67;100.00
20987;BME280;10652;50.306;8.570;2022-10-16T17:42:24;98238.34;;;17.73;100.00
20987;BME280;10652;50.306;8.570;2022-10-16T17:46:27;98233.81;;;17.75;100.00
20987;BME280;10652;50.306;8.570;2022-10-16T17:50:29;98232.13;;;17.74;100.00
20987;BME280;10652;50.306;8.570;2022-10-16T17:54:31;98236.00;;;17.69;100.00
20987;BME280;10652;50.306;8.570;2022-10-16T17:58:34;98226.88;;;17.60;100.00
20987;BME280;10652;50.306;8.570;2022-10-16T18:02:36;98232.72;;;17.51;100.00
20987;BME280;10652;50.306;8.570;2022-10-16T18:06:39;98250.78;;;17.45;100.00
20987;BME280;10652;50.306;8.570;2022-10-16T18:10:45;98244.28;;;17.36;100.00
20987;BME280;10652;50.306;8.570;2022-10-16T18:14:48;98249.97;;;17.30;100.00
20987;BME280;10652;50.306;8.570;2022-10-16T18:18:50;98258.66;;;17.32;100.00
20987;BME280;10652;50.306;8.570;2022-10-16T18:22:52;98263.00;;;17.33;100.00
20987;BME280;10652;50.306;8.570;2022-10-16T18:26:55;98266.50;;;17.33;100.00
20987;BME280;10652;50.306;8.570;2022-10-16T18:31:03;98265.84;;;17.30;100.00
20987;BME280;10652;50.306;8.570;2022-10-16T18:35:06;98259.06;;;17.26;100.00
20987;BME280;10652;50.306;8.570;2022-10-16T18:39:09;98263.88;;;17.19;100.00
20987;BME280;10652;50.306;8.570;2022-10-16T18:43:12;98279.25;;;17.13;100.00
20987;BME280;10652;50.306;8.570;2022-10-16T18:47:14;98265.09;;;17.14;100.00
20987;BME280;10652;50.306;8.570;2022-10-16T18:51:25;98272.88;;;17.17;100.00
20987;BME280;10652;50.306;8.570;2022-10-16T18:55:28;98273.88;;;17.14;100.00
20987;BME280;10652;50.306;8.570;2022-10-16T18:59:32;98279.25;;;17.13;100.00
20987;BME280;10652;50.306;8.570;2022-10-16T19:03:34;98275.03;;;17.10;100.00
20987;BME280;10652;50.306;8.570;2022-10-16T19:07:36;98280.41;;;17.09;100.00
20987;BME280;10652;50.306;8.570;2022-10-16T19:11:38;98276.06;;;17.08;100.00
20987;BME280;10652;50.306;8.570;2022-10-16T19:15:42;98265.50;;;17.08;100.00
20987;BME280;10652;50.306;8.570;2022-10-16T19:19:59;98287.31;;;17.11;100.00
20987;BME280;10652;50.306;8.570;2022-10-16T19:24:02;98277.47;;;17.13;100.00
20987;BME280;10652;50.306;8.570;2022-10-16T19:28:05;98277.59;;;17.12;100.00
20987;BME280;10652;50.306;8.570;2022-10-16T19:32:09;98286.66;;;17.08;100.00
20987;BME280;10652;50.306;8.570;2022-10-16T19:36:16;98290.41;;;17.04;100.00
20987;BME280;10652;50.306;8.570;2022-10-16T19:40:19;98296.66;;;17.03;100.00
20987;BME280;10652;50.306;8.570;2022-10-16T19:44:21;98287.75;;;17.04;100.00
20987;BME280;10652;50.306;8.570;2022-10-16T19:48:23;98281.94;;;16.99;100.00
20987;BME280;10652;50.306;8.570;2022-10-16T19:52:31;98294.88;;;16.89;100.00
20987;BME280;10652;50.306;8.570;2022-10-16T19:56:34;98306.75;;;16.82;100.00
20987;BME280;10652;50.306;8.570;2022-10-16T20:00:40;98305.41;;;16.75;100.00
20987;BME280;10652;50.306;8.570;2022-10-16T20:04:43;98310.03;;;16.71;100.00
20987;BME280;10652;50.306;8.570;2022-10-16T20:08:47;98305.69;;;16.70;100.00
20987;BME280;10652;50.306;8.570;2022-10-16T20:12:50;98308.13;;;16.73;100.00
20987;BME280;10652;50.306;8.570;2022-10-16T20:16:53;98313.81;;;16.81;100.00
20987;BME280;10652;50.306;8.570;2022-10-16T20:20:55;98308.25;;;16.86;100.00
20987;BME280;10652;50.306;8.570;2022-10-16T20:24:57;98308.72;;;16.78;100.00
20987;BME280;10652;50.306;8.570;2022-10-16T20:29:00;98318.31;;;16.65;100.00
20987;BME280;10652;50.306;8.570;2022-10-16T20:33:03;98320.97;;;16.65;100.00
20987;BME280;10652;50.306;8.570;2022-10-16T20:37:05;98316.63;;;16.64;100.00
20987;BME280;10652;50.306;8.570;2022-10-16T20:41:08;98317.75;;;16.60;100.00
20987;BME280;10652;50.306;8.570;2022-10-16T20:45:11;98315.41;;;16.54;100.00
20987;BME280;10652;50.306;8.570;2022-10-16T20:49:13;98313.63;;;16.55;100.00
20987;BME280;10652;50.306;8.570;2022-10-16T20:53:35;98321.84;;;16.50;100.00
20987;BME280;10652;50.306;8.570;2022-10-16T20:57:40;98323.88;;;16.45;100.00
20987;BME280;10652;50.306;8.570;2022-10-16T21:01:42;98326.81;;;16.40;100.00
20987;BME280;10652;50.306;8.570;2022-10-16T21:05:44;98335.00;;;16.36;100.00
20987;BME280;10652;50.306;8.570;2022-10-16T21:09:46;98328.03;;;16.35;100.00
20987;BME280;10652;50.306;8.570;2022-10-16T21:13:51;98329.72;;;16.36;100.00
20987;BME280;10652;50.306;8.570;2022-10-16T21:17:53;98316.34;;;16.39;100.00
20987;BME280;10652;50.306;8.570;2022-10-16T21:21:55;98330.41;;;16.39;100.00
20987;BME280;10652;50.306;8.570;2022-10-16T21:25:58;98321.63;;;16.39;100.00
20987;BME280;10652;50.306;8.570;2022-10-16T21:30:03;98320.00;;;16.36;100.00
20987;BME280;10652;50.306;8.570;2022-10-16T21:34:05;98321.19;;;16.31;100.00
20987;BME280;10652;50.306;8.570;2022-10-16T21:38:07;98324.94;;;16.27;100.00
20987;BME280;10652;50.306;8.570;2022-10-16T21:42:09;98324.53;;;16.19;100.00
20987;BME280;10652;50.306;8.570;2022-10-16T21:46:12;98327.25;;;16.17;100.00
20987;BME280;10652;50.306;8.570;2022-10-16T21:50:15;98315.09;;;16.15;100.00
20987;BME280;10652;50.306;8.570;2022-10-16T21:54:20;98324.81;;;16.14;100.00
20987;BME280;10652;50.306;8.570;2022-10-16T21:58:22;98328.38;;;16.13;100.00
20987;BME280;10652;50.306;8.570;2022-10-16T22:02:24;98325.13;;;16.24;100.00
20987;BME280;10652;50.306;8.570;2022-10-16T22:06:27;98331.00;;;16.29;100.00
20987;BME280;10652;50.306;8.570;2022-10-16T22:10:30;98317.81;;;16.29;100.00
20987;BME280;10652;50.306;8.570;2022-10-16T22:14:32;98317.22;;;16.24;100.00
20987;BME280;10652;50.306;8.570;2022-10-16T22:18:35;98320.03;;;16.21;100.00
20987;BME280;10652;50.306;8.570;2022-10-16T22:22:38;98309.81;;;16.15;100.00
20987;BME280;10652;50.306;8.570;2022-10-16T22:26:40;98318.84;;;16.11;100.00
20987;BME280;10652;50.306;8.570;2022-10-16T22:30:43;98317.47;;;16.03;100.00